createdAt,value
2019-06-10T00:00:41.818Z,100454.09
2019-06-10T00:03:11.536Z,100455.08
2019-06-10T00:05:41.133Z,100440.33
2019-06-10T00:08:11.421Z,100442.50
2019-06-10T00:10:38.553Z,100435.92
2019-06-10T00:13:07.372Z,100433.23
2019-06-10T00:15:36.156Z,100428.00
2019-06-10T00:18:26.959Z,100425.44
2019-06-10T00:20:33.899Z,100421.93
2019-06-10T00:23:02.520Z,100420.94
2019-06-10T00:25:31.520Z,100411.33
2019-06-10T00:28:00.530Z,100409.13
2019-06-10T00:30:31.312Z,100409.25
2019-06-10T00:32:59.083Z,100409.13
2019-06-10T00:35:27.083Z,100416.30
2019-06-10T00:37:55.083Z,100405.58
2019-06-10T00:40:23.122Z,100408.77
2019-06-10T00:42:51.217Z,100404.88
2019-06-10T00:45:21.602Z,100402.19
2019-06-10T00:47:50.783Z,100399.50
2019-06-10T00:50:18.539Z,100393.76
2019-06-10T00:52:46.634Z,100395.61
2019-06-10T00:55:14.685Z,100391.20
2019-06-10T00:57:42.764Z,100389.03
2019-06-10T01:00:18.251Z,100385.97
2019-06-10T01:02:41.051Z,100379.90
2019-06-10T01:05:12.065Z,100375.36
2019-06-10T01:07:41.230Z,100370.99
2019-06-10T01:10:11.822Z,100364.41
2019-06-10T01:12:40.685Z,100365.75
2019-06-10T01:15:09.948Z,100358.70
2019-06-10T01:17:38.438Z,100358.70
2019-06-10T01:20:07.823Z,100351.99
2019-06-10T01:22:36.134Z,100354.29
2019-06-10T01:25:05.233Z,100348.92
2019-06-10T01:27:33.299Z,100347.72
2019-06-10T01:30:03.099Z,100342.86
2019-06-10T01:32:31.296Z,100343.34
2019-06-10T01:35:01.253Z,100336.77
2019-06-10T01:37:30.981Z,100333.73
2019-06-10T01:40:00.753Z,100333.34
2019-06-10T01:42:30.548Z,100334.20
2019-06-10T01:44:58.182Z,100336.03
2019-06-10T01:47:26.189Z,100333.34
2019-06-10T01:49:54.234Z,100327.60
2019-06-10T01:52:22.286Z,100332.61
2019-06-10T01:54:51.583Z,100329.06
2019-06-10T01:57:21.894Z,100323.48
2019-06-10T01:59:50.904Z,100320.80
2019-06-10T02:02:23.799Z,100322.62
2019-06-10T02:04:51.808Z,100316.91
2019-06-10T02:07:22.703Z,100310.68
2019-06-10T02:09:51.774Z,100315.69
2019-06-10T02:12:23.725Z,100304.11
2019-06-10T02:14:50.891Z,100299.86
2019-06-10T02:17:20.042Z,100299.00
2019-06-10T02:19:50.734Z,100297.18
2019-06-10T02:22:20.254Z,100288.75
2019-06-10T02:24:48.002Z,100289.01
2019-06-10T02:27:17.373Z,100290.34
2019-06-10T02:29:45.673Z,100281.48
2019-06-10T02:32:18.674Z,100281.95
2019-06-10T02:35:01.236Z,100281.60
2019-06-10T02:37:17.256Z,100279.88
2019-06-10T02:39:44.013Z,100284.41
2019-06-10T02:42:21.625Z,100291.11
2019-06-10T02:44:47.938Z,100280.00
2019-06-10T02:47:20.262Z,100271.27
2019-06-10T02:49:56.896Z,100263.22
2019-06-10T02:52:20.698Z,100257.13
2019-06-10T02:54:48.542Z,100248.22
2019-06-10T02:57:18.180Z,100251.03
2019-06-10T02:59:46.310Z,100247.52
2019-06-10T03:02:15.671Z,100252.88
2019-06-10T03:04:43.787Z,100244.84
2019-06-10T03:07:13.744Z,100247.14
2019-06-10T03:09:42.771Z,100240.56
2019-06-10T03:12:12.222Z,100243.76
2019-06-10T03:14:42.262Z,100245.09
2019-06-10T03:17:13.618Z,100236.67
2019-06-10T03:19:50.193Z,100232.66
2019-06-10T03:22:13.091Z,100233.30
2019-06-10T03:24:42.169Z,100233.64
2019-06-10T03:27:12.539Z,100234.25
2019-06-10T03:29:42.130Z,100232.43
2019-06-10T03:32:09.748Z,100225.38
2019-06-10T03:34:43.026Z,100228.06
2019-06-10T03:37:07.550Z,100234.38
2019-06-10T03:39:35.560Z,100226.47
2019-06-10T03:42:03.619Z,100228.80
2019-06-10T03:44:33.043Z,100224.77
2019-06-10T03:47:02.869Z,100225.77
2019-06-10T03:49:32.181Z,100220.88
2019-06-10T03:52:02.454Z,100211.98
2019-06-10T03:54:32.376Z,100215.52
2019-06-10T03:56:59.820Z,100208.95
2019-06-10T03:59:29.531Z,100208.95
2019-06-10T04:01:57.510Z,100208.95
2019-06-10T04:04:26.754Z,100204.20
2019-06-10T04:06:55.189Z,100202.50
2019-06-10T04:09:25.398Z,100208.22
2019-06-10T04:11:53.404Z,100206.52
2019-06-10T04:14:22.437Z,100206.87
2019-06-10T04:16:52.557Z,100202.50
2019-06-10T04:19:23.609Z,100195.80
2019-06-10T04:21:50.471Z,100201.64
2019-06-10T04:24:19.730Z,100201.64
2019-06-10T04:26:48.094Z,100198.01
2019-06-10T04:29:16.122Z,100194.95
2019-06-10T04:31:44.109Z,100193.25
2019-06-10T04:34:12.558Z,100187.42
2019-06-10T04:36:42.298Z,100193.13
2019-06-10T04:39:12.531Z,100191.91
2019-06-10T04:41:42.416Z,100197.27
2019-06-10T04:44:09.898Z,100202.16
2019-06-10T04:46:37.929Z,100193.73
2019-06-10T04:49:05.955Z,100195.33
2019-06-10T04:51:34.168Z,100189.59
2019-06-10T04:54:03.122Z,100188.63
2019-06-10T04:56:33.372Z,100185.19
2019-06-10T04:59:03.188Z,100178.48
2019-06-10T05:01:33.319Z,100174.97
2019-06-10T05:04:02.966Z,100181.16
2019-06-10T05:06:32.621Z,100182.50
2019-06-10T05:09:00.097Z,100180.69
2019-06-10T05:11:28.949Z,100181.03
2019-06-10T05:13:57.779Z,100183.36
2019-06-10T05:16:30.076Z,100176.31
2019-06-10T05:18:55.439Z,100181.67
2019-06-10T05:21:26.692Z,100179.95
2019-06-10T05:23:53.365Z,100177.27
2019-06-10T05:26:25.092Z,100178.73
2019-06-10T05:28:52.469Z,100180.08
2019-06-10T05:31:20.631Z,100182.28
2019-06-10T05:33:48.619Z,100185.09
2019-06-10T05:36:16.625Z,100187.29
2019-06-10T05:38:44.707Z,100181.20
2019-06-10T05:41:13.426Z,100180.72
2019-06-10T05:43:43.029Z,100172.81
2019-06-10T05:46:13.409Z,100166.59
2019-06-10T05:48:43.508Z,100170.26
2019-06-10T05:51:12.365Z,100170.26
2019-06-10T05:53:42.700Z,100172.08
2019-06-10T05:56:12.622Z,100170.26
2019-06-10T05:58:40.199Z,100170.26
2019-06-10T06:01:08.270Z,100167.58
2019-06-10T06:03:37.051Z,100168.53
2019-06-10T06:06:05.322Z,100163.17
2019-06-10T06:08:35.316Z,100167.58
2019-06-10T06:11:03.419Z,100163.05
2019-06-10T06:13:35.814Z,100159.41
2019-06-10T06:16:03.247Z,100159.28
2019-06-10T06:18:34.347Z,100157.94
2019-06-10T06:21:20.154Z,100153.80
2019-06-10T06:23:33.388Z,100144.41
2019-06-10T06:26:03.650Z,100148.17
2019-06-10T06:28:32.908Z,100137.68
2019-06-10T06:31:00.073Z,100135.73
2019-06-10T06:33:29.345Z,100138.16
2019-06-10T06:35:57.570Z,100130.33
2019-06-10T06:38:26.814Z,100132.97
2019-06-10T06:40:55.019Z,100136.59
2019-06-10T06:43:23.002Z,100130.36
2019-06-10T06:45:53.011Z,100125.09
2019-06-10T06:48:22.614Z,100121.31
2019-06-10T06:51:02.059Z,100123.47
2019-06-10T06:53:30.181Z,100124.92
2019-06-10T06:55:53.446Z,100129.54
2019-06-10T06:58:19.459Z,100136.67
2019-06-10T07:01:03.789Z,100139.81
2019-06-10T07:03:17.159Z,100135.05
2019-06-10T07:05:45.750Z,100125.61
2019-06-10T07:08:13.739Z,100127.41
2019-06-10T07:10:43.556Z,100133.20
2019-06-10T07:13:12.886Z,100136.47
2019-06-10T07:15:46.530Z,100138.75
2019-06-10T07:18:13.009Z,100144.20
2019-06-10T07:20:45.374Z,100140.89
2019-06-10T07:23:12.875Z,100134.05
2019-06-10T07:25:46.593Z,100129.75
2019-06-10T07:28:12.448Z,100126.94
2019-06-10T07:30:45.150Z,100128.86
2019-06-10T07:33:12.086Z,100124.91
2019-06-10T07:35:39.335Z,100121.82
2019-06-10T07:38:07.320Z,100122.41
2019-06-10T07:40:36.541Z,100124.30
2019-06-10T07:43:04.942Z,100122.58
2019-06-10T07:45:33.860Z,100125.84
2019-06-10T07:48:02.967Z,100127.27
2019-06-10T07:50:33.310Z,100116.83
2019-06-10T07:53:02.245Z,100108.50
2019-06-10T07:55:32.802Z,100115.27
2019-06-10T07:58:02.376Z,100116.34
2019-06-10T08:00:30.013Z,100115.44
2019-06-10T08:02:58.144Z,100105.27
2019-06-10T08:05:26.232Z,100104.86
2019-06-10T08:07:54.728Z,100100.89
2019-06-10T08:10:23.346Z,100094.75
2019-06-10T08:12:52.444Z,100103.22
2019-06-10T08:15:22.867Z,100100.10
2019-06-10T08:17:52.902Z,100098.85
2019-06-10T08:20:39.071Z,100094.02
2019-06-10T08:23:07.530Z,100099.97
2019-06-10T08:25:36.840Z,100088.94
2019-06-10T08:28:05.087Z,100098.05
2019-06-10T08:30:33.158Z,100099.97
2019-06-10T08:33:03.390Z,100100.20
2019-06-10T08:35:39.457Z,100095.89
2019-06-10T08:38:02.491Z,100099.41
2019-06-10T08:40:32.588Z,100098.44
2019-06-10T08:43:00.273Z,100092.20
2019-06-10T08:45:28.321Z,100086.48
2019-06-10T08:47:56.416Z,100088.22
2019-06-10T08:50:24.785Z,100082.50
2019-06-10T08:53:09.180Z,100087.30
2019-06-10T08:55:22.932Z,100075.50
2019-06-10T08:57:53.809Z,100074.16
2019-06-10T09:00:24.881Z,100067.58
2019-06-10T09:02:53.658Z,100062.20
2019-06-10T09:05:20.259Z,100066.75
2019-06-10T09:07:51.282Z,100065.12
2019-06-10T09:10:18.340Z,100064.69
2019-06-10T09:12:49.645Z,100066.72
2019-06-10T09:15:16.196Z,100061.42
2019-06-10T09:17:47.604Z,100061.19
2019-06-10T09:20:14.063Z,100060.89
2019-06-10T09:22:45.350Z,100064.15
2019-06-10T09:25:12.488Z,100068.72
2019-06-10T09:27:42.517Z,100067.75
2019-06-10T09:30:10.278Z,100071.63
2019-06-10T09:32:39.850Z,100073.89
2019-06-10T09:35:08.060Z,100072.17
2019-06-10T09:37:36.143Z,100069.48
2019-06-10T09:40:04.839Z,100065.11
2019-06-10T09:42:33.331Z,100062.12
2019-06-10T09:45:02.646Z,100053.72
2019-06-10T09:47:34.005Z,100052.38
2019-06-10T09:50:03.052Z,100045.13
2019-06-10T09:52:32.712Z,100037.92
2019-06-10T09:55:02.545Z,100034.22
2019-06-10T09:57:32.020Z,100038.62
2019-06-10T09:59:59.312Z,100034.30
2019-06-10T10:02:27.325Z,100032.81
2019-06-10T10:04:58.377Z,100027.43
2019-06-10T10:07:25.091Z,100022.24
2019-06-10T10:09:57.181Z,100021.61
2019-06-10T10:12:23.170Z,100018.77
2019-06-10T10:14:54.578Z,100024.63
2019-06-10T10:17:23.173Z,100022.28
2019-06-10T10:19:54.831Z,100016.61
2019-06-10T10:22:22.766Z,100007.05
2019-06-10T10:24:51.494Z,100012.94
2019-06-10T10:27:19.842Z,100011.60
2019-06-10T10:29:49.979Z,100008.53
2019-06-10T10:32:17.722Z,100008.77
2019-06-10T10:34:48.267Z,100003.87
2019-06-10T10:40:04.382Z,100012.28
2019-06-10T10:42:42.690Z,100012.65
2019-06-10T10:45:02.736Z,100012.98
2019-06-10T10:47:33.520Z,100016.02
2019-06-10T10:50:02.878Z,100005.63
2019-06-10T10:52:32.869Z,100008.66
2019-06-10T10:55:04.190Z,100013.55
2019-06-10T10:57:30.067Z,100009.84
2019-06-10T10:59:58.074Z,100009.36
2019-06-10T11:02:26.069Z,100012.39
2019-06-10T11:04:56.838Z,100009.84
2019-06-10T11:07:23.858Z,100011.68
2019-06-10T11:09:55.208Z,100008.98
2019-06-10T11:12:22.960Z,100012.88
2019-06-10T11:14:54.383Z,100012.54
2019-06-10T11:17:22.716Z,100003.98
2019-06-10T11:19:53.734Z,100001.29
2019-06-10T11:22:23.154Z,99993.22
2019-06-10T11:24:51.314Z,99992.20
2019-06-10T11:27:19.911Z,99994.78
2019-06-10T11:29:48.167Z,99989.52
2019-06-10T11:32:16.333Z,99992.80
2019-06-10T11:34:45.676Z,99988.25
2019-06-10T11:37:13.775Z,99988.25
2019-06-10T11:39:42.091Z,99993.63
2019-06-10T11:42:10.114Z,99982.52
2019-06-10T11:44:38.125Z,99970.42
2019-06-10T11:47:06.173Z,99970.42
2019-06-10T11:49:34.362Z,99967.39
2019-06-10T11:52:03.210Z,99968.73
2019-06-10T11:54:34.086Z,99970.42
2019-06-10T11:57:01.218Z,99964.03
2019-06-10T11:59:29.367Z,99964.73
2019-06-10T12:02:00.417Z,99966.27
2019-06-10T12:04:27.091Z,99964.77
2019-06-10T12:06:55.235Z,99963.13
2019-06-10T12:09:23.321Z,99955.42
2019-06-10T12:11:54.273Z,99950.03
2019-06-10T12:14:24.522Z,99951.08
2019-06-10T12:17:17.705Z,99945.88
2019-06-10T12:19:21.334Z,99947.08
2019-06-10T12:21:54.936Z,99946.28
2019-06-10T12:24:22.904Z,99943.28
2019-06-10T12:26:50.011Z,99937.75
2019-06-10T12:29:18.083Z,99925.97
2019-06-10T12:31:46.138Z,99929.37
2019-06-10T12:34:14.160Z,99924.32
2019-06-10T12:36:42.163Z,99917.59
2019-06-10T12:39:11.940Z,99918.59
2019-06-10T12:41:42.690Z,99909.17
2019-06-10T12:44:28.810Z,99900.73
2019-06-10T12:46:59.709Z,99896.20
2019-06-10T12:49:26.517Z,99900.73
2019-06-10T12:51:55.866Z,99902.23
2019-06-10T12:54:24.380Z,99898.34
2019-06-10T12:56:53.302Z,99900.06
2019-06-10T12:59:22.157Z,99897.53
2019-06-10T13:01:52.945Z,99899.05
2019-06-10T13:04:19.776Z,99888.98
2019-06-10T13:06:48.096Z,99885.28
2019-06-10T13:09:16.400Z,99881.25
2019-06-10T13:11:44.374Z,99881.25
2019-06-10T13:14:13.014Z,99877.55
2019-06-10T13:16:43.333Z,99874.70
2019-06-10T13:19:13.150Z,99872.37
2019-06-10T13:21:42.581Z,99879.93
2019-06-10T13:24:12.910Z,99869.00
2019-06-10T13:26:40.029Z,99865.98
2019-06-10T13:29:10.112Z,99860.10
2019-06-10T13:31:37.751Z,99856.89
2019-06-10T13:34:10.903Z,99851.66
2019-06-10T13:36:35.519Z,99854.35
2019-06-10T13:39:07.885Z,99856.22
2019-06-10T13:41:33.982Z,99850.99
2019-06-10T13:44:02.181Z,99845.09
2019-06-10T13:46:30.297Z,99838.17
2019-06-10T13:48:59.699Z,99837.32
2019-06-10T13:51:27.946Z,99830.75
2019-06-10T13:53:55.975Z,99831.76
2019-06-10T13:56:43.099Z,99828.58
2019-06-10T13:58:53.667Z,99832.77
2019-06-10T14:01:22.371Z,99836.81
2019-06-10T14:03:50.539Z,99824.85
2019-06-10T14:06:35.869Z,99826.04
2019-06-10T14:08:52.161Z,99827.88
2019-06-10T14:11:23.830Z,99822.34
2019-06-10T14:13:49.523Z,99818.63
2019-06-10T14:16:17.620Z,99811.91
2019-06-10T14:18:45.669Z,99808.56
2019-06-10T14:21:18.191Z,99812.30
2019-06-10T14:23:43.358Z,99815.16
2019-06-10T14:26:16.700Z,99814.03
2019-06-10T14:28:44.119Z,99823.13
2019-06-10T14:31:33.689Z,99814.74
2019-06-10T14:33:42.763Z,99821.50
2019-06-10T14:36:10.975Z,99818.80
2019-06-10T14:38:41.966Z,99813.27
2019-06-10T14:41:10.072Z,99810.72
2019-06-10T14:43:38.211Z,99817.95
2019-06-10T14:46:07.384Z,99817.95
2019-06-10T14:48:35.699Z,99832.76
2019-06-10T14:51:05.336Z,99831.23
2019-06-10T14:53:33.914Z,99832.25
2019-06-10T14:56:03.643Z,99839.63
2019-06-10T14:58:31.606Z,99846.36
2019-06-10T15:00:59.631Z,99838.44
2019-06-10T15:03:27.598Z,99841.13
2019-06-10T15:05:55.570Z,99842.63
2019-06-10T15:08:23.586Z,99848.02
2019-06-10T15:10:52.752Z,99843.27
2019-06-10T15:13:23.574Z,99840.09
2019-06-10T15:15:52.956Z,99838.41
2019-06-10T15:18:23.231Z,99828.13
2019-06-10T15:20:50.167Z,99824.59
2019-06-10T15:23:19.147Z,99820.21
2019-06-10T15:25:52.574Z,99813.48
2019-06-10T15:28:17.676Z,99812.98
2019-06-10T15:30:45.963Z,99816.66
2019-06-10T15:33:16.588Z,99821.89
2019-06-10T15:35:43.651Z,99815.01
2019-06-10T15:38:13.947Z,99806.59
2019-06-10T15:40:43.364Z,99799.38
2019-06-10T15:43:11.825Z,99791.47
2019-06-10T15:45:39.879Z,99793.85
2019-06-10T15:48:07.958Z,99798.92
2019-06-10T15:50:36.017Z,99791.55
2019-06-10T15:53:04.020Z,99789.36
2019-06-10T15:55:55.469Z,99793.94
2019-06-10T15:58:02.068Z,99712.34
2019-06-10T16:00:30.260Z,99790.28
2019-06-10T16:02:58.259Z,99794.98
2019-06-10T16:05:26.234Z,99792.66
2019-06-10T16:07:54.303Z,99787.60
2019-06-10T16:10:27.338Z,99786.59
2019-06-10T16:12:52.763Z,99788.45
2019-06-10T16:15:24.362Z,99794.83
2019-06-10T16:17:53.373Z,99792.66
2019-06-10T16:20:21.408Z,99791.97
2019-06-10T16:22:52.176Z,99794.02
2019-06-10T16:25:20.048Z,99788.83
2019-06-10T16:27:51.038Z,99793.08
2019-06-10T16:30:18.218Z,99792.22
2019-06-10T16:32:46.597Z,99791.38
2019-06-10T16:35:14.797Z,99794.22
2019-06-10T16:37:42.848Z,99794.34
2019-06-10T16:40:12.256Z,99793.53
2019-06-10T16:42:42.948Z,99793.16
2019-06-10T16:45:10.103Z,99788.95
2019-06-10T16:47:38.098Z,99787.27
2019-06-10T16:50:06.168Z,99783.88
2019-06-10T16:52:34.418Z,99780.48
2019-06-10T16:55:02.644Z,99787.37
2019-06-10T16:57:33.284Z,99785.37
2019-06-10T17:00:02.776Z,99776.10
2019-06-10T17:02:30.048Z,99774.91
2019-06-10T17:04:58.623Z,99779.11
2019-06-10T17:07:26.989Z,99771.68
2019-06-10T17:09:55.002Z,99778.08
2019-06-10T17:12:24.860Z,99775.02
2019-06-10T17:14:52.785Z,99774.36
2019-06-10T17:17:23.528Z,99775.00
2019-06-10T17:19:50.498Z,99773.33
2019-06-10T17:22:18.750Z,99778.02
2019-06-10T17:24:46.957Z,99780.37
2019-06-10T17:27:14.926Z,99785.39
2019-06-10T17:29:42.921Z,99785.05
2019-06-10T17:32:13.135Z,99785.70
2019-06-10T17:34:42.328Z,99784.02
2019-06-10T17:37:12.377Z,99775.77
2019-06-10T17:39:42.617Z,99782.84
2019-06-10T17:42:12.254Z,99789.39
2019-06-10T17:44:39.515Z,99790.38
2019-06-10T17:47:07.502Z,99795.91
2019-06-10T17:49:35.519Z,99800.10
2019-06-10T17:52:03.627Z,99806.16
2019-06-10T17:54:32.462Z,99807.52
2019-06-10T17:57:02.386Z,99803.78
2019-06-10T17:59:31.437Z,99810.14
2019-06-10T18:02:00.012Z,99823.76
2019-06-10T18:04:29.258Z,99818.37
2019-06-10T18:06:57.383Z,99824.77
2019-06-10T18:09:26.135Z,99819.05
2019-06-10T18:11:54.241Z,99819.05
2019-06-10T18:14:22.995Z,99819.20
2019-06-10T18:16:52.445Z,99827.44
2019-06-10T18:19:22.227Z,99832.45
2019-06-10T18:21:52.152Z,99832.97
2019-06-10T18:24:21.449Z,99829.58
2019-06-10T18:26:49.565Z,99817.13
2019-06-10T18:29:17.643Z,99815.42
2019-06-10T18:31:45.730Z,99810.72
2019-06-10T18:34:13.888Z,99810.72
2019-06-10T18:36:42.699Z,99811.84
2019-06-10T18:39:12.384Z,99814.05
2019-06-10T18:41:41.878Z,99807.97
2019-06-10T18:44:20.042Z,99804.45
2019-06-10T18:46:40.209Z,99803.59
2019-06-10T18:49:08.888Z,99806.44
2019-06-10T18:51:37.410Z,99804.20
2019-06-10T18:54:05.603Z,99797.48
2019-06-10T18:56:35.344Z,99793.59
2019-06-10T18:59:15.664Z,99787.39
2019-06-10T19:01:34.334Z,99780.98
2019-06-10T19:04:02.821Z,99765.33
2019-06-10T19:06:33.360Z,99767.16
2019-06-10T19:09:03.116Z,99767.68
2019-06-10T19:11:31.670Z,99770.53
2019-06-10T19:14:00.097Z,99777.25
2019-06-10T19:16:28.138Z,99779.09
2019-06-10T19:18:56.180Z,99769.83
2019-06-10T19:21:24.183Z,99771.66
2019-06-10T19:23:53.154Z,99774.50
2019-06-10T19:26:22.088Z,99769.12
2019-06-10T19:28:53.190Z,99776.37
2019-06-10T19:31:19.996Z,99780.03
2019-06-10T19:33:47.976Z,99777.50
2019-06-10T19:36:15.978Z,99782.06
2019-06-10T19:38:44.386Z,99782.88
2019-06-10T19:41:12.480Z,99783.89
2019-06-10T19:43:41.515Z,99787.59
2019-06-10T19:46:10.246Z,99789.76
2019-06-10T19:48:42.293Z,99787.74
2019-06-10T19:51:08.639Z,99789.24
2019-06-10T19:53:37.287Z,99799.62
2019-06-10T19:56:05.483Z,99791.56
2019-06-10T19:58:34.191Z,99784.99
2019-06-10T20:01:02.235Z,99783.64
2019-06-10T20:03:32.546Z,99786.48
2019-06-10T20:06:02.865Z,99788.84
2019-06-10T20:08:30.107Z,99780.08
2019-06-10T20:10:58.572Z,99783.62
2019-06-10T20:13:26.642Z,99789.15
2019-06-10T20:15:54.782Z,99782.42
2019-06-10T20:18:22.907Z,99781.08
2019-06-10T20:20:53.792Z,99776.71
2019-06-10T20:23:20.683Z,99773.66
2019-06-10T20:25:48.891Z,99773.66
2019-06-10T20:28:16.978Z,99764.77
2019-06-10T20:30:47.747Z,99760.52
2019-06-10T20:33:16.741Z,99763.73
2019-06-10T20:35:45.686Z,99765.55
2019-06-10T20:38:13.848Z,99769.75
2019-06-10T20:40:43.084Z,99775.61
2019-06-10T20:43:13.272Z,99781.84
2019-06-10T20:45:44.156Z,99781.66
2019-06-10T20:48:11.310Z,99777.63
2019-06-10T20:50:40.764Z,99773.75
2019-06-10T20:53:15.500Z,99767.17
2019-06-10T20:55:43.325Z,99779.27
2019-06-10T20:58:08.445Z,99777.56
2019-06-10T21:00:37.033Z,99774.88
2019-06-10T21:03:05.370Z,99775.03
2019-06-10T21:05:33.963Z,99780.41
2019-06-10T21:08:02.950Z,99784.59
2019-06-10T21:10:35.048Z,99778.39
2019-06-10T21:13:03.526Z,99765.44
2019-06-10T21:15:33.334Z,99764.24
2019-06-10T21:18:01.555Z,99763.38
2019-06-10T21:20:29.643Z,99764.39
2019-06-10T21:22:57.779Z,99765.41
2019-06-10T21:25:25.823Z,99777.66
2019-06-10T21:27:54.249Z,99783.85
2019-06-10T21:30:37.507Z,99783.85
2019-06-10T21:32:54.710Z,99778.63
2019-06-10T21:35:21.711Z,99788.55
2019-06-10T21:37:49.870Z,99789.53
2019-06-10T21:40:17.787Z,99795.91
2019-06-10T21:42:45.872Z,99792.38
2019-06-10T21:45:15.470Z,99793.38
2019-06-10T21:47:45.322Z,99788.16
2019-06-10T21:50:13.209Z,99785.13
2019-06-10T21:52:44.101Z,99780.39
2019-06-10T21:55:12.987Z,99779.05
2019-06-10T21:57:43.032Z,99778.70
2019-06-10T22:00:13.846Z,99781.88
2019-06-10T22:02:42.757Z,99793.98
2019-06-10T22:05:11.846Z,99793.64
2019-06-10T22:07:42.159Z,99787.07
2019-06-10T22:10:09.361Z,99778.16
2019-06-10T22:12:37.390Z,99779.98
2019-06-10T22:15:06.628Z,99790.73
2019-06-10T22:17:34.777Z,99796.26
2019-06-10T22:20:02.914Z,99802.30
2019-06-10T22:22:32.304Z,99808.16
2019-06-10T22:25:02.774Z,99807.31
2019-06-10T22:27:32.381Z,99803.77
2019-06-10T22:30:02.683Z,99803.55
2019-06-10T22:32:32.218Z,99808.09
2019-06-10T22:34:59.401Z,99798.32
2019-06-10T22:37:27.506Z,99788.24
2019-06-10T22:39:57.516Z,99791.75
2019-06-10T22:42:25.325Z,99789.58
2019-06-10T22:44:57.425Z,99798.62
2019-06-10T22:47:23.042Z,99800.48
2019-06-10T22:49:54.719Z,99805.00
2019-06-10T22:52:23.032Z,99798.28
2019-06-10T22:54:52.174Z,99796.94
2019-06-10T22:57:22.069Z,99807.34
2019-06-10T22:59:50.665Z,99809.17
2019-06-10T23:02:19.392Z,99805.78
2019-06-10T23:04:47.454Z,99804.44
2019-06-10T23:07:15.522Z,99803.28
2019-06-10T23:09:43.574Z,99811.34
2019-06-10T23:12:12.074Z,99820.38
2019-06-10T23:14:40.245Z,99826.75
2019-06-10T23:17:08.416Z,99831.27
2019-06-10T23:19:36.470Z,99829.10
2019-06-10T23:22:04.563Z,99833.61
2019-06-10T23:24:32.661Z,99837.31
2019-06-10T23:27:03.096Z,99832.76
2019-06-10T23:29:32.272Z,99829.25
2019-06-10T23:32:05.936Z,99831.22
2019-06-10T23:34:29.885Z,99824.99
2019-06-10T23:36:58.751Z,99831.38
2019-06-10T23:39:27.710Z,99823.95
2019-06-10T23:41:57.654Z,99823.46
2019-06-10T23:44:25.448Z,99824.80
2019-06-10T23:46:53.505Z,99832.01
2019-06-10T23:49:22.819Z,99824.47
2019-06-10T23:51:54.066Z,99836.19
2019-06-10T23:54:22.814Z,99836.33
2019-06-10T23:56:50.378Z,99828.79
2019-06-10T23:59:18.382Z,99827.59
